KDKK/DKK METAR and TAF weather

Enter ICAO airport designator
Station Type Date Time Source
KDKK METAR 2019/10/16 19:14 UTC NOAA

KDKK 161914Z AUTO 21011KT 10SM SCT025 BKN039 OVC046 11/08 A2955 RMK AO2 T01060078


Station Type Date Time Source
KDKK Decoded METAR 2019/10/16 19:14 UTC NOAA

CHAUTAUQUA COUNTY/DUNKIRK, NY, United States (KDKK) 42-30N 079-17W 202M
Oct 16, 2019 - 03:14 PM EDT / 2019.10.16 1914 UTC
Wind: from the SSW (210 degrees) at 13 MPH (11 KT):0
Visibility: 10 mile(s):0
Sky conditions: overcast
Temperature: 51.1 F (10.6 C)
Dew Point: 46.0 F (7.8 C)
Relative Humidity: 82%
Pressure (altimeter): 29.55 in. Hg (1000 hPa)
ob: KDKK 161914Z AUTO 21011KT 10SM SCT025 BKN039 OVC046 11/08 A2955 RMK AO2 T01060078
cycle: 19

Station Type Date Time Source
KDKK TAF UTC NOAA

Error!

Example: see airport list